地図

経路データ

SID SEASON NUMBER BASIN SUBBASIN NAME ISO_TIME NATURE LAT LON WMO_WIND WMO_PRES WMO_AGENCY TRACK_TYPE DIST2LAND LANDFALL IFLAG USA_AGENCY USA_ATCF_ID USA_LAT USA_LON USA_RECORD USA_STATUS USA_WIND USA_PRES USA_SSHS USA_R34_NE USA_R34_SE USA_R34_SW USA_R34_NW USA_R50_NE USA_R50_SE USA_R50_SW USA_R50_NW USA_R64_NE USA_R64_SE USA_R64_SW USA_R64_NW USA_POCI USA_ROCI USA_RMW USA_EYE TOKYO_LAT TOKYO_LON TOKYO_GRADE TOKYO_WIND TOKYO_PRES TOKYO_R50_DIR TOKYO_R50_LONG TOKYO_R50_SHORT TOKYO_R30_DIR TOKYO_R30_LONG TOKYO_R30_SHORT TOKYO_LAND CMA_LAT CMA_LON CMA_CAT CMA_WIND CMA_PRES HKO_LAT HKO_LON HKO_CAT HKO_WIND HKO_PRES NEWDELHI_LAT NEWDELHI_LON NEWDELHI_GRADE NEWDELHI_WIND NEWDELHI_PRES NEWDELHI_CI NEWDELHI_DP NEWDELHI_POCI REUNION_LAT REUNION_LON REUNION_TYPE REUNION_WIND REUNION_PRES REUNION_TNUM REUNION_CI REUNION_RMW REUNION_R34_NE REUNION_R34_SE REUNION_R34_SW REUNION_R34_NW REUNION_R50_NE REUNION_R50_SE REUNION_R50_SW REUNION_R50_NW REUNION_R64_NE REUNION_R64_SE REUNION_R64_SW REUNION_R64_NW BOM_LAT BOM_LON BOM_TYPE BOM_WIND BOM_PRES BOM_TNUM BOM_CI BOM_RMW BOM_R34_NE BOM_R34_SE BOM_R34_SW BOM_R34_NW BOM_R50_NE BOM_R50_SE BOM_R50_SW BOM_R50_NW BOM_R64_NE BOM_R64_SE BOM_R64_SW BOM_R64_NW BOM_ROCI BOM_POCI BOM_EYE BOM_POS_METHOD BOM_PRES_METHOD NADI_LAT NADI_LON NADI_CAT NADI_WIND NADI_PRES WELLINGTON_LAT WELLINGTON_LON WELLINGTON_WIND WELLINGTON_PRES DS824_LAT DS824_LON DS824_STAGE DS824_WIND DS824_PRES TD9636_LAT TD9636_LON TD9636_STAGE TD9636_WIND TD9636_PRES TD9635_LAT TD9635_LON TD9635_WIND TD9635_PRES TD9635_ROCI NEUMANN_LAT NEUMANN_LON NEUMANN_CLASS NEUMANN_WIND NEUMANN_PRES MLC_LAT MLC_LON MLC_CLASS MLC_WIND MLC_PRES USA_GUST BOM_GUST BOM_GUST_PER REUNION_GUST REUNION_GUST_PER USA_SEAHGT USA_SEARAD_NE USA_SEARAD_SE USA_SEARAD_SW USA_SEARAD_NW STORM_SPEED STORM_DIR
1999191N26129 1999 42 WP MM NOT_NAMED 1999-07-09 12:00:00 TS 26.0000 129.000 main 582 563 __O___________ -1 26.0000 129.000 1 23 1002 6 332
1999191N26129 1999 42 WP MM NOT_NAMED 1999-07-09 15:00:00 TS 26.2475 128.855 main 563 524 __P___________ -1 26.2475 128.855 1 23 1002 6 343
1999191N26129 1999 42 WP MM NOT_NAMED 1999-07-09 18:00:00 TS 26.6000 128.800 main 524 469 __O___________ -1 26.6000 128.800 1 23 1002 9 1
1999191N26129 1999 42 WP MM NOT_NAMED 1999-07-09 21:00:00 TS 27.0950 128.885 main 469 423 __P___________ -1 27.0950 128.885 1 26 1000 9 11
1999191N26129 1999 42 WP MM NOT_NAMED 1999-07-10 00:00:00 TS 27.5000 129.000 main 423 413 __O___________ -1 27.5000 129.000 1 29 998 5 6
1999191N26129 1999 42 WP MM NOT_NAMED 1999-07-10 03:00:00 TS 27.5898 128.955 main 413 413 __P___________ -1 27.5898 128.955 1 29 998 0 0
1999191N26129 1999 42 WP MM NOT_NAMED 1999-07-10 06:00:00 TS 27.5000 129.000 main 423 420 __O___________ -1 27.5000 129.000 1 29 998 4 123
1999191N26129 1999 42 WP MM NOT_NAMED 1999-07-10 09:00:00 TS 27.3652 129.340 main 424 421 __P___________ -1 27.3652 129.340 1 29 998 8 113
1999191N26129 1999 42 WP MM NOT_NAMED 1999-07-10 12:00:00 TS 27.2000 129.800 main 433 429 __O___________ -1 27.2000 129.800 1 29 998 8 110
1999191N26129 1999 42 WP MM NOT_NAMED 1999-07-10 15:00:00 TS 27.0923 130.192 main 438 436 __P___________ -1 27.0923 130.192 1 29 998 7 106
1999191N26129 1999 42 WP MM NOT_NAMED 1999-07-10 18:00:00 TS 27.0000 130.600 main 446 446 __O___________ -1 27.0000 130.600 1 29 998 8 106
1999191N26129 1999 42 WP MM NOT_NAMED 1999-07-10 21:00:00 TS 26.8702 131.073 main 459 459 __P___________ -1 26.8702 131.073 1 29 998 8 104
1999191N26129 1999 42 WP MM NOT_NAMED 1999-07-11 00:00:00 TS 26.8000 131.500 main 475 467 __O___________ -1 26.8000 131.500 1 29 998 6 90
1999191N26129 1999 42 WP MM NOT_NAMED 1999-07-11 03:00:00 TS 26.8698 131.780 main 469 461 __P___________ -1 26.8698 131.780 1 29 998 5 66
1999191N26129 1999 42 WP MM NOT_NAMED 1999-07-11 06:00:00 TS 27.0000 132.000 main 464 459 __O___________ -1 27.0000 132.000 1 29 998 5 63
1999191N26129 1999 42 WP MM NOT_NAMED 1999-07-11 09:00:00 TS 27.0850 132.258 main 462 455 __P___________ -1 27.0850 132.258 1 29 998 5 66
1999191N26129 1999 42 WP MM NOT_NAMED 1999-07-11 12:00:00 TS 27.2000 132.500 main 458 446 __O___________ -1 27.2000 132.500 1 29 998 5 55
1999191N26129 1999 42 WP MM NOT_NAMED 1999-07-11 15:00:00 TS 27.3850 132.730 main 446 435 __P___________ -1 27.3850 132.730 1 29 998 5 42
1999191N26129 1999 42 WP MM NOT_NAMED 1999-07-11 18:00:00 TS 27.6000 132.900 main 435 420 __O___________ -1 27.6000 132.900 1 29 998 5 27
1999191N26129 1999 42 WP MM NOT_NAMED 1999-07-11 21:00:00 TS 27.8074 132.973 main 420 401 __P___________ -1 27.8074 132.973 1 29 998 4 12
1999191N26129 1999 42 WP MM NOT_NAMED 1999-07-12 00:00:00 TS 28.0000 133.000 main 401 383 __O___________ -1 28.0000 133.000 1 29 998 4 11
1999191N26129 1999 42 WP MM NOT_NAMED 1999-07-12 03:00:00 TS 28.1650 133.050 main 389 380 __P___________ -1 28.1650 133.050 1 29 998 3 16
1999191N26129 1999 42 WP MM NOT_NAMED 1999-07-12 06:00:00 TS 28.3000 133.100 main 380 371 __O___________ -1 28.3000 133.100 1 29 998 2 18
1999191N26129 1999 42 WP MM NOT_NAMED 1999-07-12 09:00:00 TS 28.4000 133.143 main 371 367 __P___________ -1 28.4000 133.143 1 29 998 2 25
1999191N26129 1999 42 WP MM NOT_NAMED 1999-07-12 12:00:00 TS 28.5000 133.200 main 367 357 __O___________ -1 28.5000 133.200 1 29 998 3 29
1999191N26129 1999 42 WP MM NOT_NAMED 1999-07-12 15:00:00 TS 28.6500 133.300 main 352 347 __P___________ -1 28.6500 133.300 1 29 998 3 30
1999191N26129 1999 42 WP MM NOT_NAMED 1999-07-12 18:00:00 TS 28.8000 133.400 main 347 338 __O___________ -1 28.8000 133.400 1 29 998 3 22
1999191N26129 1999 42 WP MM NOT_NAMED 1999-07-12 21:00:00 TS 28.9074 133.420 main 338 329 __P___________ -1 28.9074 133.420 1 29 997 2 25
1999191N26129 1999 42 WP MM NOT_NAMED 1999-07-13 00:00:00 TS 29.0000 133.500 main 335 335 __O___________ -1 29.0000 133.500 1 29 996 4 61
1999191N26129 1999 42 WP MM NOT_NAMED 1999-07-13 03:00:00 TS 29.0777 133.778 main 344 344 __P___________ -1 29.0777 133.778 1 29 996 6 69
1999191N26129 1999 42 WP MM NOT_NAMED 1999-07-13 06:00:00 TS 29.2000 134.100 main 356 356 __O___________ -1 29.2000 134.100 1 29 996 6 54
1999191N26129 1999 42 WP MM NOT_NAMED 1999-07-13 09:00:00 TS 29.4199 134.315 main 356 349 __P___________ -1 29.4199 134.315 1 29 997 6 35
1999191N26129 1999 42 WP MM NOT_NAMED 1999-07-13 12:00:00 TS 29.7000 134.500 main 351 341 __O___________ -1 29.7000 134.500 1 29 998 7 30
1999191N26129 1999 42 WP MM NOT_NAMED 1999-07-13 15:00:00 TS 30.0000 134.707 main 341 322 __P___________ -1 30.0000 134.707 1 29 998 7 30
1999191N26129 1999 42 WP MM NOT_NAMED 1999-07-13 18:00:00 TS 30.3000 134.900 main 322 304 __O___________ -1 30.3000 134.900 1 29 998 5 22
1999191N26129 1999 42 WP MM NOT_NAMED 1999-07-13 21:00:00 TS 30.5039 134.947 main 304 280 __P___________ -1 30.5039 134.947 1 26 998 6 28
1999191N26129 1999 42 WP MM NOT_NAMED 1999-07-14 00:00:00 TS 30.8000 135.200 main 283 234 __O___________ -1 30.8000 135.200 1 23 998 12 48
1999191N26129 1999 42 WP MM NOT_NAMED 1999-07-14 03:00:00 TS 31.2883 135.973 main 234 186 __P___________ -1 31.2883 135.973 1 23 998 20 52
1999191N26129 1999 42 WP MM NOT_NAMED 1999-07-14 06:00:00 TS 32.0000 137.000 main 192 186 __O___________ -1 32.0000 137.000 1 23 998 24 46
1999191N26129 1999 42 WP MM NOT_NAMED 1999-07-14 09:00:00 TS 32.9382 138.013 main 186 78 __P___________ -1 32.9382 138.013 1 23 998 26 40
1999191N26129 1999 42 WP MM NOT_NAMED 1999-07-14 12:00:00 TS 34.0000 139.000 main 69 __O___________ -1 34.0000 139.000 1 23 998 27 38

デジタル台風データ・検索

IBTrACS Databaseについて

本データベースは、米国NOAAが公開する1842年以降の世界の熱帯低気圧のベストトラックデータアーカイブInternational Best Track Archive for Climate Stewardship (IBTrACS)を、ウェブで閲覧しやすい形式に変換したものです。

最終更新日:2021-12-08